Time;durP1;ratioP1;P1;durP2;ratioP2;P2;SDS_P1;SDS_P2;PMS_P1;PMS_P2;Temp;Humidity;BMP_temperature;BMP_pressure;BME280_temperature;BME280_humidity;BME280_pressure;Samples;Min_cycle;Max_cycle;Signal;HPM_P1;HPM_P2
2023/08/13 03:45:31;;;;;;;8.02;5.20;;;18.40;80.60;;;;;;6242616;23;20031;-86
2023/08/13 03:47:56;;;;;;;10.18;6.28;;;18.40;78.90;;;;;;6248165;23;20059;-87
2023/08/13 03:50:22;;;;;;;11.48;6.03;;;18.30;77.00;;;;;;6249890;23;20004;-85
2023/08/13 03:52:47;;;;;;;13.48;5.97;;;18.40;74.80;;;;;;6221899;23;20008;-85
2023/08/13 03:55:13;;;;;;;14.95;6.68;;;18.40;73.90;;;;;;6248554;23;20000;-88
2023/08/13 03:57:38;;;;;;;11.70;6.70;;;18.40;74.10;;;;;;6248433;23;20362;-84
2023/08/13 04:00:05;;;;;;;13.23;7.55;;;18.40;71.30;;;;;;6222756;23;20004;-83
2023/08/13 04:02:33;;;;;;;14.52;9.13;;;18.40;70.30;;;;;;6248499;23;20073;-83
2023/08/13 04:04:59;;;;;;;11.10;7.43;;;18.40;68.80;;;;;;6248365;23;20303;-83
2023/08/13 04:07:25;;;;;;;12.88;7.07;;;18.40;67.10;;;;;;6247677;23;20003;-83
2023/08/13 04:09:50;;;;;;;10.88;7.75;;;18.40;66.60;;;;;;6248611;23;20404;-83
2023/08/13 04:12:16;;;;;;;15.85;8.68;;;18.40;67.70;;;;;;6248599;23;20004;-83
2023/08/13 04:14:41;;;;;;;13.05;6.88;;;18.20;67.90;;;;;;6249306;23;20011;-83
2023/08/13 04:17:07;;;;;;;15.88;8.50;;;18.20;66.70;;;;;;6249074;23;20000;-84
2023/08/13 04:19:32;;;;;;;11.63;7.60;;;18.20;66.00;;;;;;6248996;23;20004;-84
2023/08/13 04:21:58;;;;;;;17.45;9.63;;;18.20;64.80;;;;;;6247854;23;20004;-84
2023/08/13 04:24:23;;;;;;;13.65;8.00;;;18.20;64.30;;;;;;6248980;23;20004;-84
2023/08/13 04:26:49;;;;;;;11.05;7.85;;;18.20;63.70;;;;;;6248222;23;20262;-84
2023/08/13 04:29:15;;;;;;;12.13;7.05;;;18.20;63.50;;;;;;6248554;23;20016;-84
2023/08/13 04:31:40;;;;;;;14.65;8.30;;;18.30;62.90;;;;;;6248159;23;20062;-84
2023/08/13 04:34:06;;;;;;;13.60;8.30;;;18.30;62.90;;;;;;6248766;23;20008;-84
2023/08/13 04:36:32;;;;;;;12.27;7.15;;;18.30;62.80;;;;;;6246595;23;20016;-84
2023/08/13 04:38:58;;;;;;;14.85;7.43;;;18.30;62.60;;;;;;6249392;23;20054;-85
2023/08/13 04:41:24;;;;;;;13.77;8.65;;;18.30;62.30;;;;;;6248382;23;20008;-84
2023/08/13 04:43:49;;;;;;;18.63;11.15;;;18.30;63.00;;;;;;6248500;23;20266;-83
2023/08/13 04:46:15;;;;;;;17.13;10.98;;;18.20;62.80;;;;;;6248455;23;20042;-84
2023/08/13 04:48:45;;;;;;;31.17;15.02;;;18.20;61.90;;;;;;6247788;23;20008;-83
2023/08/13 04:51:13;;;;;;;16.08;10.02;;;18.20;61.70;;;;;;6247266;23;20015;-85
2023/08/13 04:53:38;;;;;;;24.75;14.60;;;18.20;61.00;;;;;;6220854;23;20019;-85
2023/08/13 04:56:06;;;;;;;16.83;11.50;;;18.20;60.90;;;;;;6247624;23;20003;-87
2023/08/13 04:58:32;;;;;;;12.52;8.82;;;18.10;60.90;;;;;;6248122;23;20010;-85
2023/08/13 05:00:58;;;;;;;20.42;14.20;;;18.10;60.60;;;;;;6249191;23;20071;-86
2023/08/13 05:03:23;;;;;;;14.55;9.80;;;18.00;61.00;;;;;;6247535;23;20389;-87
2023/08/13 05:05:49;;;;;;;16.98;12.15;;;18.00;60.70;;;;;;6246832;23;20095;-88
2023/08/13 05:08:15;;;;;;;17.25;12.23;;;17.90;60.90;;;;;;6247832;23;20069;-88
2023/08/13 05:10:40;;;;;;;14.45;10.00;;;17.80;60.90;;;;;;6248711;23;20008;-87
2023/08/13 05:13:06;;;;;;;13.57;10.50;;;17.80;60.20;;;;;;6248199;23;20354;-87
2023/08/13 05:15:31;;;;;;;12.88;9.60;;;17.90;59.90;;;;;;6248474;23;20031;-86
2023/08/13 05:18:00;;;;;;;11.23;8.98;;;17.90;60.00;;;;;;6249183;23;20394;-88
2023/08/13 05:20:26;;;;;;;13.75;9.25;;;18.00;60.00;;;;;;6248019;23;20384;-87
2023/08/13 05:22:51;;;;;;;15.77;10.57;;;18.00;60.10;;;;;;6247273;23;20082;-87
2023/08/13 05:25:17;;;;;;;11.98;9.07;;;18.00;60.80;;;;;;6221789;23;20011;-89
2023/08/13 05:27:42;;;;;;;13.32;8.52;;;18.00;60.50;;;;;;6247444;23;20003;-86
2023/08/13 05:30:09;;;;;;;12.68;8.45;;;18.10;60.40;;;;;;6248612;23;20297;-88
2023/08/13 05:32:35;;;;;;;12.23;8.57;;;18.10;60.70;;;;;;6221161;23;20243;-89
2023/08/13 05:35:01;;;;;;;15.63;10.02;;;18.20;60.80;;;;;;6221397;23;20022;-88
2023/08/13 05:37:27;;;;;;;14.80;9.10;;;18.20;61.30;;;;;;6245936;23;20313;-87
2023/08/13 05:39:53;;;;;;;14.35;9.25;;;18.30;60.90;;;;;;6221807;23;20008;-89
2023/08/13 05:42:54;;;;;;;13.30;7.68;;;18.30;61.30;;;;;;6221828;23;20012;-90
2023/08/13 05:45:19;;;;;;;14.43;8.07;;;18.40;60.80;;;;;;6241780;23;20377;-89
2023/08/13 05:47:45;;;;;;;14.07;9.32;;;18.50;61.00;;;;;;6247913;23;20008;-89
2023/08/13 05:50:11;;;;;;;11.00;8.20;;;18.50;61.20;;;;;;6248383;23;20050;-88
2023/08/13 05:52:40;;;;;;;12.75;9.98;;;18.70;61.20;;;;;;6245370;23;20058;-88
2023/08/13 05:55:06;;;;;;;12.90;8.73;;;18.70;62.10;;;;;;6221778;23;20391;-89
2023/08/13 05:57:32;;;;;;;9.30;7.40;;;18.80;61.50;;;;;;6221528;23;20004;-87
2023/08/13 05:59:59;;;;;;;11.75;6.93;;;18.90;61.70;;;;;;6247639;23;20046;-89
2023/08/13 06:02:25;;;;;;;10.57;6.40;;;18.90;62.80;;;;;;6247952;23;20007;-87
2023/08/13 06:04:51;;;;;;;11.40;9.40;;;18.80;63.70;;;;;;6247309;23;20008;-87
2023/08/13 06:07:17;;;;;;;12.07;9.10;;;18.70;65.10;;;;;;6246148;23;20310;-88
2023/08/13 06:09:43;;;;;;;14.40;9.80;;;18.50;64.80;;;;;;6221777;23;20011;-89
2023/08/13 06:12:09;;;;;;;14.90;11.23;;;18.40;62.90;;;;;;6247856;23;20000;-88
2023/08/13 06:14:36;;;;;;;13.73;8.10;;;18.40;62.90;;;;;;6248178;23;20410;-88
2023/08/13 06:17:01;;;;;;;19.40;9.57;;;18.40;62.30;;;;;;6220731;23;20016;-85
2023/08/13 06:19:27;;;;;;;11.85;8.02;;;18.40;62.00;;;;;;6247263;23;20031;-81
2023/08/13 06:21:53;;;;;;;12.90;8.63;;;18.50;61.60;;;;;;6219476;23;20011;-82
2023/08/13 06:24:19;;;;;;;14.43;10.18;;;18.50;61.40;;;;;;6220897;23;20314;-82
2023/08/13 06:26:44;;;;;;;13.93;8.57;;;18.60;61.20;;;;;;6247318;23;20366;-82
2023/08/13 06:29:10;;;;;;;11.80;8.20;;;18.70;60.60;;;;;;6219999;23;20005;-83
2023/08/13 06:31:37;;;;;;;11.00;7.78;;;18.80;60.90;;;;;;6246506;23;20075;-83
2023/08/13 06:34:04;;;;;;;13.20;8.38;;;18.90;60.10;;;;;;6249056;23;20008;-83
2023/08/13 06:36:30;;;;;;;12.98;8.98;;;19.10;59.90;;;;;;6248213;23;20004;-84
2023/08/13 06:38:55;;;;;;;11.00;8.77;;;19.30;60.20;;;;;;6251131;23;20243;-84
2023/08/13 06:41:21;;;;;;;9.93;6.68;;;19.40;60.40;;;;;;6251065;23;20010;-82
2023/08/13 06:43:47;;;;;;;10.48;8.02;;;19.50;60.70;;;;;;6251226;23;20079;-82
2023/08/13 06:46:13;;;;;;;9.77;6.20;;;19.50;60.90;;;;;;6250973;23;20012;-83
2023/08/13 06:48:38;;;;;;;8.98;5.93;;;19.50;62.10;;;;;;6250918;23;20027;-83
2023/08/13 06:51:11;;;;;;;12.20;7.20;;;19.60;62.80;;;;;;6249419;23;20000;-85
2023/08/13 06:53:37;;;;;;;13.30;6.70;;;19.50;63.60;;;;;;6250793;23;20000;-86
2023/08/13 06:56:03;;;;;;;9.68;6.75;;;19.50;64.40;;;;;;6251201;23;20000;-86
2023/08/13 06:58:29;;;;;;;12.02;6.55;;;19.40;65.00;;;;;;6251077;23;20004;-86
2023/08/13 07:00:54;;;;;;;10.13;6.75;;;19.40;62.60;;;;;;6250902;23;20244;-85
2023/08/13 07:03:20;;;;;;;9.02;6.72;;;19.60;61.80;;;;;;6224242;23;20345;-89
2023/08/13 07:05:45;;;;;;;12.27;7.00;;;19.60;65.00;;;;;;6249335;23;20007;-87
2023/08/13 07:08:11;;;;;;;8.85;7.05;;;19.50;66.20;;;;;;6250350;23;20012;-86
2023/08/13 07:10:38;;;;;;;15.38;9.00;;;19.30;67.40;;;;;;6248931;23;19997;-86
2023/08/13 07:13:04;;;;;;;13.38;9.50;;;19.20;66.60;;;;;;6250566;23;20266;-84
2023/08/13 07:15:30;;;;;;;12.25;8.77;;;19.10;65.30;;;;;;6250772;23;20000;-86
2023/08/13 07:17:55;;;;;;;13.38;10.00;;;19.30;64.10;;;;;;6250438;23;20050;-84
2023/08/13 07:20:21;;;;;;;9.68;7.13;;;19.40;64.10;;;;;;6250210;23;20386;-84
2023/08/13 07:22:47;;;;;;;9.35;7.47;;;19.50;63.50;;;;;;6249018;23;20006;-85
2023/08/13 07:25:13;;;;;;;7.93;5.80;;;19.50;64.00;;;;;;6249689;23;20004;-84
2023/08/13 07:27:40;;;;;;;9.00;5.97;;;19.80;62.60;;;;;;6249928;23;20035;-85
2023/08/13 07:30:07;;;;;;;9.80;6.00;;;20.00;62.80;;;;;;6249881;23;20060;-87
2023/08/13 07:32:35;;;;;;;8.40;5.88;;;20.50;62.40;;;;;;6224610;23;20011;-85
2023/08/13 07:35:01;;;;;;;9.63;5.97;;;20.80;64.20;;;;;;6249787;23;20377;-85
2023/08/13 07:37:27;;;;;;;8.90;4.90;;;21.00;71.10;;;;;;6248237;23;20079;-85
2023/08/13 07:39:53;;;;;;;6.97;5.00;;;21.10;75.10;;;;;;6249049;23;20011;-86
2023/08/13 07:42:18;;;;;;;9.93;5.18;;;21.40;80.70;;;;;;6250799;23;20008;-85
2023/08/13 07:44:44;;;;;;;9.95;5.13;;;21.60;87.20;;;;;;6250461;23;20083;-86
2023/08/13 07:47:09;;;;;;;7.55;4.65;;;21.60;89.90;;;;;;6250713;23;20073;-85
2023/08/13 07:49:35;;;;;;;10.60;5.93;;;21.70;88.30;;;;;;6250512;23;20011;-85
2023/08/13 07:52:00;;;;;;;9.00;4.70;;;21.80;87.90;;;;;;6251289;23;20344;-86
2023/08/13 07:54:27;;;;;;;8.38;4.55;;;22.10;85.90;;;;;;6250056;23;20011;-86
2023/08/13 07:56:53;;;;;;;9.18;5.03;;;22.60;90.50;;;;;;6250657;23;20436;-86
2023/08/13 07:59:19;;;;;;;7.40;4.75;;;22.60;93.20;;;;;;6250612;23;20019;-86
2023/08/13 08:01:48;;;;;;;7.03;3.95;;;22.90;92.80;;;;;;6249461;23;20004;-85
2023/08/13 08:04:14;;;;;;;7.03;4.20;;;23.40;95.40;;;;;;6248559;23;20126;-86
2023/08/13 08:06:39;;;;;;;7.95;4.45;;;24.10;96.60;;;;;;6246074;23;20325;-84
2023/08/13 08:09:05;;;;;;;7.25;4.35;;;24.80;98.00;;;;;;6248296;23;20000;-85
2023/08/13 08:11:34;;;;;;;10.07;5.68;;;24.70;97.60;;;;;;6248914;23;20365;-86
2023/08/13 08:13:59;;;;;;;9.40;5.10;;;24.00;97.90;;;;;;6249405;23;20015;-86
2023/08/13 08:16:25;;;;;;;7.85;6.07;;;23.90;97.70;;;;;;6249598;23;20361;-87
2023/08/13 08:18:50;;;;;;;7.65;5.15;;;23.60;97.90;;;;;;6248350;23;20042;-88
2023/08/13 08:21:16;;;;;;;11.90;5.88;;;23.30;96.60;;;;;;6249380;23;20067;-88
2023/08/13 08:23:42;;;;;;;13.07;6.55;;;23.30;96.90;;;;;;6248552;23;20000;-87
2023/08/13 08:26:07;;;;;;;8.80;5.97;;;23.40;98.00;;;;;;6223492;23;20001;-89
2023/08/13 08:28:33;;;;;;;8.70;6.20;;;22.90;96.40;;;;;;6249043;23;20071;-88
2023/08/13 08:30:58;;;;;;;6.82;5.00;;;23.40;97.00;;;;;;6249471;23;20175;-87
2023/08/13 08:33:24;;;;;;;8.02;5.30;;;24.30;98.00;;;;;;6248479;23;20353;-87
2023/08/13 08:35:50;;;;;;;6.68;4.35;;;25.00;98.00;;;;;;6248440;23;20035;-89
2023/08/13 08:38:15;;;;;;;8.68;5.28;;;25.60;96.50;;;;;;6248764;23;20011;-89
2023/08/13 08:40:47;;;;;;;8.73;4.53;;;26.00;95.70;;;;;;6249483;23;20005;-88
2023/08/13 08:43:13;;;;;;;7.72;4.90;;;26.20;94.80;;;;;;6249246;23;20007;-90
2023/08/13 08:45:40;;;;;;;6.07;4.43;;;26.20;94.40;;;;;;6249957;23;20218;-88
2023/08/13 08:48:06;;;;;;;7.15;4.15;;;26.40;94.30;;;;;;6250236;23;20004;-88
2023/08/13 08:50:34;;;;;;;6.20;4.40;;;26.50;93.70;;;;;;6247859;23;20001;-87
2023/08/13 08:53:00;;;;;;;8.07;5.45;;;26.20;94.60;;;;;;6222200;23;20004;-88
2023/08/13 08:55:26;;;;;;;9.02;7.00;;;26.00;95.40;;;;;;6249888;23;19996;-88
2023/08/13 08:57:54;;;;;;;12.93;6.90;;;25.50;96.00;;;;;;6248285;23;20007;-88
2023/08/13 09:00:20;;;;;;;10.15;7.18;;;25.10;96.80;;;;;;6222332;23;20000;-88
2023/08/13 09:02:48;;;;;;;11.70;6.88;;;24.60;96.90;;;;;;6249758;23;20000;-87
2023/08/13 09:05:15;;;;;;;10.77;7.47;;;23.90;97.30;;;;;;6250014;23;20004;-87
2023/08/13 09:07:44;;;;;;;10.57;7.60;;;23.40;97.40;;;;;;6247125;23;20377;-87
2023/08/13 09:10:10;;;;;;;11.80;7.45;;;23.00;96.60;;;;;;6249183;23;20000;-89
2023/08/13 09:12:40;;;;;;;10.00;7.68;;;22.50;94.90;;;;;;6249649;23;20062;-87
2023/08/13 09:15:08;;;;;;;10.95;7.05;;;22.70;95.50;;;;;;6249093;23;20015;-87
2023/08/13 09:17:34;;;;;;;10.35;7.45;;;22.80;96.60;;;;;;6249476;23;20004;-86
2023/08/13 09:20:23;;;;;;;8.98;6.30;;;23.10;97.10;;;;;;6248768;23;20243;-88
2023/08/13 09:22:50;;;;;;;13.02;8.77;;;23.50;97.50;;;;;;6246902;23;20031;-87
2023/08/13 09:25:18;;;;;;;8.52;6.32;;;23.90;98.00;;;;;;6248494;23;20000;-87
2023/08/13 09:27:45;;;;;;;10.40;7.00;;;24.30;97.70;;;;;;6249526;23;20000;-86
2023/08/13 09:30:31;;;;;;;10.73;6.53;;;24.70;96.90;;;;;;6223244;23;20026;-87
2023/08/13 09:33:00;;;;;;;8.45;5.47;;;24.80;97.00;;;;;;6247832;23;20004;-86
2023/08/13 09:35:26;;;;;;;7.43;4.53;;;26.20;95.20;;;;;;6246588;23;20365;-87
2023/08/13 09:37:52;;;;;;;9.40;5.35;;;27.80;93.30;;;;;;6221907;23;20030;-87
2023/08/13 09:40:18;;;;;;;7.88;5.28;;;28.80;89.20;;;;;;6221537;23;20098;-87
2023/08/13 09:42:46;;;;;;;10.07;6.32;;;29.30;87.30;;;;;;6221525;23;20431;-86
2023/08/13 09:45:14;;;;;;;7.03;5.13;;;29.70;85.90;;;;;;6222059;23;20010;-87
2023/08/13 09:47:43;;;;;;;6.57;4.60;;;29.40;87.00;;;;;;6222932;23;20004;-85
2023/08/13 09:50:11;;;;;;;9.25;5.95;;;29.60;86.30;;;;;;6249672;23;20027;-85
2023/08/13 09:52:39;;;;;;;10.35;5.70;;;29.50;85.80;;;;;;6248397;23;20000;-86
2023/08/13 09:55:13;;;;;;;7.68;5.13;;;29.10;87.20;;;;;;6249312;23;20079;-85
2023/08/13 09:57:40;;;;;;;10.30;5.68;;;28.60;89.10;;;;;;6249363;23;20079;-86
2023/08/13 10:00:08;;;;;;;7.22;4.88;;;28.30;89.80;;;;;;6249104;23;20001;-85
2023/08/13 10:02:35;;;;;;;10.45;5.47;;;28.40;89.70;;;;;;6248869;23;20007;-85
2023/08/13 10:05:03;;;;;;;7.82;5.90;;;28.50;89.20;;;;;;6245752;23;20064;-86
2023/08/13 10:07:28;;;;;;;7.63;5.65;;;27.50;91.00;;;;;;6246933;23;20298;-86
2023/08/13 10:09:54;;;;;;;9.50;5.90;;;26.90;93.00;;;;;;6247625;23;20008;-85
2023/08/13 10:12:22;;;;;;;8.32;5.30;;;27.30;93.30;;;;;;6247867;23;20011;-85
2023/08/13 10:14:48;;;;;;;9.18;4.60;;;27.60;92.30;;;;;;6247650;23;20261;-84
2023/08/13 10:17:17;;;;;;;8.30;5.20;;;28.20;91.00;;;;;;6246799;23;20000;-85
2023/08/13 10:19:49;;;;;;;7.43;5.18;;;28.40;90.40;;;;;;6221343;23;20007;-85
2023/08/13 10:22:22;;;;;;;7.60;5.13;;;28.60;90.50;;;;;;6245882;23;20079;-85
2023/08/13 10:24:48;;;;;;;8.37;5.10;;;28.90;89.00;;;;;;6221225;23;20046;-84
2023/08/13 10:27:14;;;;;;;6.50;4.50;;;28.90;89.20;;;;;;6247738;22;20239;-84
2023/08/13 10:29:41;;;;;;;8.52;5.05;;;29.20;88.40;;;;;;6247131;23;20006;-84
2023/08/13 10:32:15;;;;;;;8.18;5.15;;;29.50;87.50;;;;;;6248820;23;20001;-83
2023/08/13 10:34:46;;;;;;;7.60;5.00;;;29.40;89.10;;;;;;6247379;23;20004;-82
2023/08/13 10:37:17;;;;;;;6.13;4.32;;;29.80;87.50;;;;;;6246802;23;20004;-83
2023/08/13 10:39:44;;;;;;;9.88;5.28;;;29.60;87.00;;;;;;6247997;23;20004;-82
2023/08/13 10:42:33;;;;;;;8.20;5.70;;;29.20;88.60;;;;;;6249070;23;20292;-83
2023/08/13 10:45:04;;;;;;;8.43;6.22;;;28.60;89.80;;;;;;6247666;23;20000;-84
2023/08/13 10:47:52;;;;;;;7.93;5.53;;;28.40;90.30;;;;;;6247230;23;20317;-84
2023/08/13 10:50:21;;;;;;;8.70;5.78;;;28.30;91.30;;;;;;6220472;23;20433;-83
2023/08/13 10:52:50;;;;;;;8.35;5.97;;;28.10;91.60;;;;;;6219093;23;20092;-82
2023/08/13 10:55:24;;;;;;;9.30;5.75;;;28.90;90.70;;;;;;6247918;23;20001;-82
2023/08/13 10:57:53;;;;;;;8.65;5.72;;;29.60;88.30;;;;;;6246132;23;20054;-82
2023/08/13 11:00:22;;;;;;;10.80;5.95;;;29.70;87.60;;;;;;6242167;23;20075;-82
2023/08/13 11:02:53;;;;;;;8.60;5.35;;;29.40;88.60;;;;;;6244055;23;20011;-81
2023/08/13 11:05:20;;;;;;;7.88;4.38;;;29.20;89.50;;;;;;6244304;23;20428;-82
2023/08/13 11:07:46;;;;;;;7.63;5.65;;;29.60;89.50;;;;;;6243557;23;20005;-81
2023/08/13 11:10:17;;;;;;;9.77;5.70;;;29.80;88.20;;;;;;6248720;23;20003;-82
2023/08/13 11:12:45;;;;;;;7.80;4.85;;;29.50;88.70;;;;;;6247651;23;20027;-82
2023/08/13 11:15:11;;;;;;;7.45;4.57;;;29.10;89.80;;;;;;6248003;23;20016;-81
2023/08/13 11:17:36;;;;;;;7.60;4.30;;;30.00;87.60;;;;;;6248494;23;20258;-82
2023/08/13 11:20:05;;;;;;;6.93;4.05;;;30.60;87.20;;;;;;6249054;23;20004;-82
2023/08/13 11:22:31;;;;;;;11.48;8.35;;;31.30;84.50;;;;;;6246831;23;20008;-82
2023/08/13 11:24:57;;;;;;;10.35;6.45;;;31.20;83.60;;;;;;6248970;23;20266;-82
2023/08/13 11:27:31;;;;;;;7.13;4.93;;;29.70;86.70;;;;;;6249919;23;20000;-82
2023/08/13 11:29:58;;;;;;;8.93;5.32;;;28.50;89.90;;;;;;6250129;23;20004;-82
2023/08/13 11:32:24;;;;;;;9.05;5.93;;;28.40;90.60;;;;;;6248256;23;20085;-82
2023/08/13 11:34:49;;;;;;;9.20;5.53;;;28.30;91.20;;;;;;6250339;23;20007;-83
2023/08/13 11:37:15;;;;;;;11.02;6.10;;;28.10;91.40;;;;;;6248112;23;20024;-90
2023/08/13 11:39:41;;;;;;;9.25;6.60;;;28.00;91.50;;;;;;6249783;23;20004;-80
2023/08/13 11:42:08;;;;;;;10.68;7.32;;;27.40;92.90;;;;;;6249545;23;20012;-80
2023/08/13 11:44:34;;;;;;;9.52;6.90;;;26.70;93.60;;;;;;6249495;23;20008;-80
2023/08/13 11:47:05;;;;;;;10.55;7.38;;;26.30;95.00;;;;;;6222399;23;20688;-80
2023/08/13 11:49:39;;;;;;;12.63;7.50;;;26.10;95.50;;;;;;6249906;23;20074;-80
2023/08/13 11:52:06;;;;;;;12.85;7.90;;;26.10;95.80;;;;;;6247344;23;20085;-80
2023/08/13 11:54:33;;;;;;;9.75;7.40;;;25.80;96.00;;;;;;6250017;23;20008;-81
2023/08/13 11:57:03;;;;;;;9.98;7.80;;;25.20;96.30;;;;;;6250296;23;20007;-80
2023/08/13 11:59:31;;;;;;;11.65;7.35;;;24.60;95.60;;;;;;6249771;23;20004;-80
2023/08/13 12:01:57;;;;;;;11.43;6.45;;;24.50;94.90;;;;;;6250768;23;20004;-80
2023/08/13 12:04:24;;;;;;;9.73;6.43;;;24.40;95.20;;;;;;6248034;23;20415;-82
2023/08/13 12:06:52;;;;;;;11.63;8.50;;;24.30;93.80;;;;;;6248681;23;20000;-80
2023/08/13 12:09:19;;;;;;;12.88;8.23;;;24.20;91.10;;;;;;6249825;23;20000;-81
2023/08/13 12:11:44;;;;;;;10.77;7.90;;;24.20;92.70;;;;;;6249462;23;20007;-81
2023/08/13 12:14:10;;;;;;;11.98;8.27;;;24.10;91.00;;;;;;6249592;23;20003;-81
2023/08/13 12:16:36;;;;;;;10.93;7.30;;;24.10;92.00;;;;;;6250134;23;20004;-80
2023/08/13 12:19:05;;;;;;;10.88;6.75;;;23.90;90.80;;;;;;6248971;23;20000;-80
2023/08/13 12:21:31;;;;;;;9.13;6.43;;;24.20;94.80;;;;;;6222128;23;20027;-81
2023/08/13 12:23:57;;;;;;;10.60;6.47;;;24.20;92.40;;;;;;6249409;23;20079;-81
2023/08/13 12:26:23;;;;;;;13.25;6.57;;;24.30;94.50;;;;;;6249971;23;20027;-80
2023/08/13 12:28:50;;;;;;;9.88;5.57;;;24.30;95.00;;;;;;6249914;23;20000;-81
2023/08/13 12:31:19;;;;;;;7.55;5.55;;;24.40;93.70;;;;;;6249360;23;20071;-80
2023/08/13 12:33:45;;;;;;;7.60;5.22;;;25.00;96.40;;;;;;6248786;23;20365;-80
2023/08/13 12:36:11;;;;;;;7.80;4.53;;;25.60;96.30;;;;;;6248129;23;20429;-79
2023/08/13 12:38:39;;;;;;;9.88;4.65;;;27.30;96.80;;;;;;6250244;23;20038;-79
2023/08/13 12:41:08;;;;;;;8.73;3.80;;;29.40;92.30;;;;;;6247776;23;20007;-79
2023/08/13 12:43:38;;;;;;;6.22;3.55;;;31.00;86.90;;;;;;6249218;23;20081;-80
2023/08/13 12:46:07;;;;;;;8.43;3.17;;;30.60;83.10;;;;;;6250005;23;20269;-80
2023/08/13 12:48:35;;;;;;;5.75;2.90;;;30.80;84.80;;;;;;6250563;23;20004;-80
2023/08/13 12:51:02;;;;;;;5.97;2.92;;;31.60;82.50;;;;;;6246215;23;20077;-79
2023/08/13 12:53:28;;;;;;;6.55;2.83;;;32.30;78.40;;;;;;6223493;23;20378;-80
2023/08/13 12:55:54;;;;;;;9.38;3.45;;;32.60;75.60;;;;;;6222845;23;20380;-79
2023/08/13 12:58:19;;;;;;;5.43;2.30;;;32.40;76.30;;;;;;6248787;23;19996;-79
2023/08/13 13:00:45;;;;;;;5.13;2.03;;;32.50;76.80;;;;;;6249780;23;20075;-79
2023/08/13 13:03:11;;;;;;;4.88;2.47;;;31.60;74.10;;;;;;6248349;23;20358;-79
2023/08/13 13:05:37;;;;;;;6.18;2.50;;;31.40;77.50;;;;;;6248792;23;20001;-79
2023/08/13 13:08:02;;;;;;;6.18;2.75;;;32.10;77.10;;;;;;6248989;23;20022;-78
2023/08/13 13:10:28;;;;;;;6.60;3.15;;;33.00;75.00;;;;;;6250080;23;20339;-78
2023/08/13 13:12:54;;;;;;;6.25;2.85;;;33.00;75.70;;;;;;6247450;23;20007;-78
2023/08/13 13:15:20;;;;;;;4.38;2.40;;;32.60;77.40;;;;;;6249076;23;20062;-79
2023/08/13 13:17:46;;;;;;;6.68;2.83;;;32.30;78.30;;;;;;6249904;23;20030;-79
2023/08/13 13:20:11;;;;;;;7.20;2.95;;;31.90;77.10;;;;;;6250233;23;20016;-79
2023/08/13 13:22:41;;;;;;;6.57;3.22;;;30.90;78.30;;;;;;6248584;23;20028;-77
2023/08/13 13:25:09;;;;;;;6.07;2.95;;;30.40;79.80;;;;;;6249577;23;20079;-78
2023/08/13 13:27:34;;;;;;;5.60;2.72;;;30.10;80.50;;;;;;6247904;23;20000;-78
2023/08/13 13:30:01;;;;;;;5.85;2.63;;;31.20;79.00;;;;;;6249953;23;20365;-77
2023/08/13 13:32:26;;;;;;;5.05;2.63;;;32.40;76.50;;;;;;6248014;23;19996;-77
2023/08/13 13:34:52;;;;;;;5.57;2.80;;;32.90;74.40;;;;;;6248602;23;20050;-77
2023/08/13 13:37:17;;;;;;;5.25;2.70;;;33.80;74.60;;;;;;6247399;23;20008;-78
2023/08/13 13:39:43;;;;;;;5.10;2.40;;;34.10;72.50;;;;;;6248181;23;20079;-78
2023/08/13 13:42:10;;;;;;;8.15;2.63;;;35.10;70.60;;;;;;6248889;23;20365;-79
2023/08/13 13:44:35;;;;;;;7.25;2.47;;;35.80;69.50;;;;;;6247356;23;20096;-79
2023/08/13 13:47:04;;;;;;;4.88;2.50;;;36.10;69.10;;;;;;6247489;23;20334;-78
2023/08/13 13:49:30;;;;;;;5.45;2.72;;;35.80;69.60;;;;;;6223461;23;20050;-79
2023/08/13 13:51:55;;;;;;;5.65;2.75;;;35.20;70.70;;;;;;6221269;23;20000;-79
2023/08/13 13:54:21;;;;;;;5.53;2.85;;;35.00;71.10;;;;;;6249120;23;20004;-78
2023/08/13 13:56:46;;;;;;;6.65;3.20;;;34.80;70.90;;;;;;6247766;23;20012;-78
2023/08/13 13:59:12;;;;;;;9.55;3.35;;;34.90;71.10;;;;;;6249276;23;20000;-79
2023/08/13 14:01:37;;;;;;;5.70;2.72;;;35.10;70.70;;;;;;6250210;23;20011;-78
2023/08/13 14:04:03;;;;;;;6.47;2.97;;;34.80;71.70;;;;;;6248112;23;20008;-79
2023/08/13 14:06:28;;;;;;;5.53;2.80;;;35.20;71.90;;;;;;6248494;23;20058;-79
2023/08/13 14:08:54;;;;;;;4.90;2.58;;;35.40;70.50;;;;;;6249525;23;20022;-78
2023/08/13 14:11:19;;;;;;;4.95;2.65;;;36.00;70.40;;;;;;6248303;23;20000;-77
2023/08/13 14:13:45;;;;;;;6.38;3.20;;;35.90;70.40;;;;;;6248106;23;20431;-78
2023/08/13 14:16:11;;;;;;;7.25;3.10;;;35.90;70.40;;;;;;6221530;23;20008;-78
2023/08/13 14:18:36;;;;;;;8.35;3.40;;;34.80;71.80;;;;;;6249922;23;20030;-79
2023/08/13 14:21:02;;;;;;;5.88;3.20;;;33.50;74.30;;;;;;6247550;23;20040;-79
2023/08/13 14:23:28;;;;;;;8.07;3.58;;;31.50;79.50;;;;;;6248752;23;20058;-79
2023/08/13 14:25:53;;;;;;;6.82;3.00;;;31.00;81.70;;;;;;6248489;23;20007;-78
2023/08/13 14:28:19;;;;;;;6.55;3.30;;;30.70;82.20;;;;;;6249773;23;20026;-79
2023/08/13 14:30:44;;;;;;;6.50;3.45;;;31.30;81.10;;;;;;6248533;23;20004;-78
2023/08/13 14:33:11;;;;;;;8.20;4.05;;;31.10;80.20;;;;;;6249124;23;20011;-78
2023/08/13 14:35:36;;;;;;;7.60;3.10;;;30.40;81.60;;;;;;6246999;23;19996;-78
2023/08/13 14:38:03;;;;;;;8.73;3.83;;;30.70;81.60;;;;;;6248888;23;20000;-79
2023/08/13 14:40:28;;;;;;;7.63;3.22;;;30.60;81.30;;;;;;6249802;23;20075;-79
2023/08/13 14:42:54;;;;;;;7.65;3.67;;;30.00;83.90;;;;;;6249370;23;20051;-78
2023/08/13 14:45:19;;;;;;;5.82;2.90;;;30.20;82.50;;;;;;6248932;23;20217;-78
2023/08/13 14:47:45;;;;;;;8.85;3.53;;;30.40;82.50;;;;;;6248444;23;20007;-78
2023/08/13 14:50:11;;;;;;;10.45;3.63;;;30.60;82.00;;;;;;6249550;23;20000;-78
2023/08/13 14:52:36;;;;;;;6.30;2.88;;;30.20;82.00;;;;;;6246525;23;20099;-80
2023/08/13 14:55:02;;;;;;;7.10;3.58;;;30.10;82.20;;;;;;6247769;23;20354;-78
2023/08/13 14:57:28;;;;;;;6.28;3.60;;;30.40;81.50;;;;;;6222814;23;20004;-78
2023/08/13 14:59:53;;;;;;;6.03;3.17;;;30.20;82.00;;;;;;6250687;23;20075;-78
2023/08/13 15:02:19;;;;;;;8.25;4.00;;;30.30;83.00;;;;;;6250518;23;20266;-78
2023/08/13 15:04:44;;;;;;;6.10;2.92;;;30.90;81.90;;;;;;6251454;23;20008;-78
2023/08/13 15:07:10;;;;;;;8.73;3.60;;;31.00;79.70;;;;;;6249947;23;20073;-78
2023/08/13 15:09:36;;;;;;;6.30;3.20;;;30.50;82.90;;;;;;6251329;23;20006;-78
2023/08/13 15:12:02;;;;;;;7.95;3.60;;;29.70;83.30;;;;;;6223416;23;20004;-78
2023/08/13 15:14:27;;;;;;;7.57;3.63;;;29.00;85.60;;;;;;6251022;23;20005;-78
2023/08/13 15:16:53;;;;;;;8.18;3.78;;;28.40;87.70;;;;;;6251330;23;20011;-78
2023/08/13 15:19:18;;;;;;;7.60;3.80;;;28.00;88.90;;;;;;6251506;23;20361;-79
2023/08/13 15:21:44;;;;;;;7.35;3.50;;;27.40;89.60;;;;;;6248454;23;20342;-78
2023/08/13 15:24:09;;;;;;;8.63;4.40;;;27.00;90.00;;;;;;6250967;23;20011;-79
2023/08/13 15:26:38;;;;;;;9.70;3.80;;;26.90;92.60;;;;;;6224870;23;20028;-79
2023/08/13 15:29:04;;;;;;;10.15;4.53;;;26.60;93.20;;;;;;6251360;23;20403;-80
2023/08/13 15:31:29;;;;;;;11.20;4.68;;;26.00;93.80;;;;;;6223486;23;19996;-81
2023/08/13 15:33:55;;;;;;;8.88;4.85;;;25.00;95.00;;;;;;6248971;23;20004;-81
2023/08/13 15:36:21;;;;;;;9.05;5.03;;;24.50;93.80;;;;;;6248981;23;20008;-83
2023/08/13 15:38:46;;;;;;;8.82;5.18;;;24.10;91.50;;;;;;6246060;23;20000;-84
2023/08/13 15:41:12;;;;;;;8.05;5.35;;;23.60;91.70;;;;;;6221166;23;20011;-83
2023/08/13 15:43:37;;;;;;;9.30;5.00;;;23.20;90.20;;;;;;6219264;23;20012;-83
2023/08/13 15:46:03;;;;;;;9.52;6.80;;;22.90;88.60;;;;;;6246775;23;20158;-83
2023/08/13 15:48:28;;;;;;;20.38;7.70;;;22.70;86.80;;;;;;6246040;23;20012;-88
2023/08/13 15:50:54;;;;;;;12.70;7.75;;;22.70;82.60;;;;;;6242453;23;20015;-85
2023/08/13 15:53:22;;;;;;;36.35;10.52;;;22.50;77.20;;;;;;6247492;23;19996;-83
2023/08/13 15:55:48;;;;;;;23.65;13.05;;;22.20;71.30;;;;;;6244670;23;20424;-78
2023/08/13 15:58:14;;;;;;;15.98;9.35;;;21.50;59.40;;;;;;6247316;23;19996;-78
2023/08/13 16:00:40;;;;;;;14.65;9.57;;;21.30;58.30;;;;;;6219978;23;20009;-78
2023/08/13 16:03:05;;;;;;;15.25;10.82;;;21.10;57.10;;;;;;6246278;23;20011;-79
2023/08/13 16:05:34;;;;;;;19.15;16.02;;;21.00;56.90;;;;;;6217903;23;20064;-80
2023/08/13 16:08:00;;;;;;;21.35;15.70;;;21.40;56.00;;;;;;6218194;23;20003;-81
2023/08/13 16:10:25;;;;;;;15.35;11.43;;;21.80;56.20;;;;;;6219771;23;20019;-82
2023/08/13 16:12:51;;;;;;;17.73;14.18;;;22.20;54.40;;;;;;6246525;23;20035;-82
2023/08/13 16:15:16;;;;;;;17.77;12.70;;;22.30;54.20;;;;;;6246284;23;20046;-82
2023/08/13 16:17:44;;;;;;;13.07;8.55;;;23.00;55.40;;;;;;6245704;23;20360;-82
2023/08/13 16:20:10;;;;;;;11.77;8.13;;;23.50;53.20;;;;;;6246624;23;20008;-83
2023/08/13 16:22:40;;;;;;;10.18;6.13;;;23.60;51.40;;;;;;6245180;23;20012;-81